sensor_id;sensor_type;location;lat;lon;timestamp;temperature;humidity
35920;DHT22;36160;53.370;-6.196;2022-10-16T00:01:26;8.60;99.90
35920;DHT22;36160;53.370;-6.196;2022-10-16T00:03:52;8.60;99.90
35920;DHT22;36160;53.370;-6.196;2022-10-16T00:06:19;8.60;99.90
35920;DHT22;36160;53.370;-6.196;2022-10-16T00:08:45;8.50;99.90
35920;DHT22;36160;53.370;-6.196;2022-10-16T00:11:17;8.60;99.90
35920;DHT22;36160;53.370;-6.196;2022-10-16T00:13:44;8.60;99.90
35920;DHT22;36160;53.370;-6.196;2022-10-16T00:16:12;8.50;99.90
35920;DHT22;36160;53.370;-6.196;2022-10-16T00:18:38;8.60;99.90
35920;DHT22;36160;53.370;-6.196;2022-10-16T00:21:09;8.60;99.90
35920;DHT22;36160;53.370;-6.196;2022-10-16T00:23:36;8.60;99.90
35920;DHT22;36160;53.370;-6.196;2022-10-16T00:26:05;8.60;99.90
35920;DHT22;36160;53.370;-6.196;2022-10-16T00:28:32;8.60;99.90
35920;DHT22;36160;53.370;-6.196;2022-10-16T00:30:58;8.60;99.90
35920;DHT22;36160;53.370;-6.196;2022-10-16T00:33:24;8.70;99.90
35920;DHT22;36160;53.370;-6.196;2022-10-16T00:35:50;8.60;99.90
35920;DHT22;36160;53.370;-6.196;2022-10-16T00:38:16;8.70;99.90
35920;DHT22;36160;53.370;-6.196;2022-10-16T00:40:42;8.60;99.90
35920;DHT22;36160;53.370;-6.196;2022-10-16T00:43:39;8.60;99.90
35920;DHT22;36160;53.370;-6.196;2022-10-16T00:46:12;8.60;99.90
35920;DHT22;36160;53.370;-6.196;2022-10-16T00:48:38;8.70;98.50
35920;DHT22;36160;53.370;-6.196;2022-10-16T00:51:05;8.70;98.00
35920;DHT22;36160;53.370;-6.196;2022-10-16T00:53:32;8.60;99.10
35920;DHT22;36160;53.370;-6.196;2022-10-16T00:55:58;8.60;97.50
35920;DHT22;36160;53.370;-6.196;2022-10-16T00:58:24;8.60;95.40
35920;DHT22;36160;53.370;-6.196;2022-10-16T01:00:50;8.60;95.40
35920;DHT22;36160;53.370;-6.196;2022-10-16T01:03:28;8.60;94.40
35920;DHT22;36160;53.370;-6.196;2022-10-16T01:06:09;8.60;92.80
35920;DHT22;36160;53.370;-6.196;2022-10-16T01:09:03;8.60;91.00
35920;DHT22;36160;53.370;-6.196;2022-10-16T01:14:15;8.70;80.90
35920;DHT22;36160;53.370;-6.196;2022-10-16T01:16:52;8.70;81.00
35920;DHT22;36160;53.370;-6.196;2022-10-16T01:21:51;8.70;84.20
35920;DHT22;36160;53.370;-6.196;2022-10-16T01:29:39;8.70;84.90
35920;DHT22;36160;53.370;-6.196;2022-10-16T01:32:19;8.70;82.10
35920;DHT22;36160;53.370;-6.196;2022-10-16T01:34:55;8.80;75.80
35920;DHT22;36160;53.370;-6.196;2022-10-16T01:37:37;8.80;71.40
35920;DHT22;36160;53.370;-6.196;2022-10-16T01:40:05;8.70;70.40
35920;DHT22;36160;53.370;-6.196;2022-10-16T01:42:36;8.70;69.60
35920;DHT22;36160;53.370;-6.196;2022-10-16T01:45:05;8.80;65.00
35920;DHT22;36160;53.370;-6.196;2022-10-16T01:47:34;8.80;58.20
35920;DHT22;36160;53.370;-6.196;2022-10-16T01:50:03;8.90;56.20
35920;DHT22;36160;53.370;-6.196;2022-10-16T01:52:33;8.80;57.00
35920;DHT22;36160;53.370;-6.196;2022-10-16T01:55:02;8.80;56.20
35920;DHT22;36160;53.370;-6.196;2022-10-16T01:57:29;8.80;58.40
35920;DHT22;36160;53.370;-6.196;2022-10-16T02:00:00;8.70;63.00
35920;DHT22;36160;53.370;-6.196;2022-10-16T02:02:28;8.70;63.80
35920;DHT22;36160;53.370;-6.196;2022-10-16T02:05:03;8.80;64.90
35920;DHT22;36160;53.370;-6.196;2022-10-16T02:07:30;8.70;71.50
35920;DHT22;36160;53.370;-6.196;2022-10-16T02:09:56;8.70;76.40
35920;DHT22;36160;53.370;-6.196;2022-10-16T02:12:28;8.60;80.10
35920;DHT22;36160;53.370;-6.196;2022-10-16T02:14:55;8.60;82.80
35920;DHT22;36160;53.370;-6.196;2022-10-16T02:17:21;8.60;84.50
35920;DHT22;36160;53.370;-6.196;2022-10-16T02:19:48;8.60;83.10
35920;DHT22;36160;53.370;-6.196;2022-10-16T02:22:21;8.60;88.10
35920;DHT22;36160;53.370;-6.196;2022-10-16T02:24:56;8.60;85.90
35920;DHT22;36160;53.370;-6.196;2022-10-16T02:32:50;8.60;80.40
35920;DHT22;36160;53.370;-6.196;2022-10-16T02:35:19;8.50;84.30
35920;DHT22;36160;53.370;-6.196;2022-10-16T02:37:47;8.60;83.80
35920;DHT22;36160;53.370;-6.196;2022-10-16T02:40:14;8.60;79.50
35920;DHT22;36160;53.370;-6.196;2022-10-16T02:42:40;8.50;82.40
35920;DHT22;36160;53.370;-6.196;2022-10-16T02:45:08;8.50;82.60
35920;DHT22;36160;53.370;-6.196;2022-10-16T02:47:34;8.50;81.10
35920;DHT22;36160;53.370;-6.196;2022-10-16T02:49:59;8.50;81.60
35920;DHT22;36160;53.370;-6.196;2022-10-16T02:52:25;8.40;80.50
35920;DHT22;36160;53.370;-6.196;2022-10-16T02:54:51;8.40;79.30
35920;DHT22;36160;53.370;-6.196;2022-10-16T02:57:17;8.40;76.50
35920;DHT22;36160;53.370;-6.196;2022-10-16T02:59:43;8.40;72.40
35920;DHT22;36160;53.370;-6.196;2022-10-16T03:02:09;8.40;70.80
35920;DHT22;36160;53.370;-6.196;2022-10-16T03:04:35;8.40;65.00
35920;DHT22;36160;53.370;-6.196;2022-10-16T03:07:00;8.40;58.40
35920;DHT22;36160;53.370;-6.196;2022-10-16T03:09:26;8.40;54.80
35920;DHT22;36160;53.370;-6.196;2022-10-16T03:11:52;8.40;50.10
35920;DHT22;36160;53.370;-6.196;2022-10-16T03:14:17;8.40;44.30
35920;DHT22;36160;53.370;-6.196;2022-10-16T03:16:43;8.50;43.00
35920;DHT22;36160;53.370;-6.196;2022-10-16T03:19:09;8.50;41.50
35920;DHT22;36160;53.370;-6.196;2022-10-16T03:21:34;8.40;43.00
35920;DHT22;36160;53.370;-6.196;2022-10-16T03:24:00;8.40;39.40
35920;DHT22;36160;53.370;-6.196;2022-10-16T03:26:26;8.40;36.50
35920;DHT22;36160;53.370;-6.196;2022-10-16T03:28:51;8.40;34.80
35920;DHT22;36160;53.370;-6.196;2022-10-16T03:31:17;8.40;29.90
35920;DHT22;36160;53.370;-6.196;2022-10-16T03:33:42;8.40;26.20
35920;DHT22;36160;53.370;-6.196;2022-10-16T03:36:08;8.50;23.50
35920;DHT22;36160;53.370;-6.196;2022-10-16T03:38:34;8.50;22.60
35920;DHT22;36160;53.370;-6.196;2022-10-16T03:40:59;8.50;23.10
35920;DHT22;36160;53.370;-6.196;2022-10-16T03:43:25;8.50;23.20
35920;DHT22;36160;53.370;-6.196;2022-10-16T03:45:51;8.50;23.60
35920;DHT22;36160;53.370;-6.196;2022-10-16T03:48:18;8.50;24.50
35920;DHT22;36160;53.370;-6.196;2022-10-16T03:50:43;8.40;27.70
35920;DHT22;36160;53.370;-6.196;2022-10-16T03:53:09;8.40;29.70
35920;DHT22;36160;53.370;-6.196;2022-10-16T03:55:35;8.40;32.10
35920;DHT22;36160;53.370;-6.196;2022-10-16T03:58:01;8.40;37.20
35920;DHT22;36160;53.370;-6.196;2022-10-16T04:00:27;8.40;39.70
35920;DHT22;36160;53.370;-6.196;2022-10-16T04:02:52;8.30;41.00
35920;DHT22;36160;53.370;-6.196;2022-10-16T04:05:18;8.30;41.80
35920;DHT22;36160;53.370;-6.196;2022-10-16T04:07:44;8.30;42.30
35920;DHT22;36160;53.370;-6.196;2022-10-16T04:10:09;8.30;42.30
35920;DHT22;36160;53.370;-6.196;2022-10-16T04:12:35;8.30;44.50
35920;DHT22;36160;53.370;-6.196;2022-10-16T04:15:01;8.20;46.10
35920;DHT22;36160;53.370;-6.196;2022-10-16T04:17:27;8.20;47.00
35920;DHT22;36160;53.370;-6.196;2022-10-16T04:19:52;8.20;48.50
35920;DHT22;36160;53.370;-6.196;2022-10-16T04:22:18;8.20;47.80
35920;DHT22;36160;53.370;-6.196;2022-10-16T04:24:43;8.10;50.00
35920;DHT22;36160;53.370;-6.196;2022-10-16T04:27:09;8.10;49.40
35920;DHT22;36160;53.370;-6.196;2022-10-16T04:29:35;8.10;49.20
35920;DHT22;36160;53.370;-6.196;2022-10-16T04:32:00;8.20;46.30
35920;DHT22;36160;53.370;-6.196;2022-10-16T04:34:26;8.20;44.70
35920;DHT22;36160;53.370;-6.196;2022-10-16T04:36:52;8.20;44.70
35920;DHT22;36160;53.370;-6.196;2022-10-16T04:39:17;8.20;44.50
35920;DHT22;36160;53.370;-6.196;2022-10-16T04:41:43;8.20;44.60
35920;DHT22;36160;53.370;-6.196;2022-10-16T04:44:09;8.20;44.70
35920;DHT22;36160;53.370;-6.196;2022-10-16T04:46:34;8.20;44.20
35920;DHT22;36160;53.370;-6.196;2022-10-16T04:49:00;8.20;42.40
35920;DHT22;36160;53.370;-6.196;2022-10-16T04:51:26;8.20;41.90
35920;DHT22;36160;53.370;-6.196;2022-10-16T04:53:53;8.10;42.30
35920;DHT22;36160;53.370;-6.196;2022-10-16T04:56:19;8.10;45.90
35920;DHT22;36160;53.370;-6.196;2022-10-16T04:58:46;8.10;45.50
35920;DHT22;36160;53.370;-6.196;2022-10-16T05:01:12;8.10;47.40
35920;DHT22;36160;53.370;-6.196;2022-10-16T05:03:38;8.10;48.10
35920;DHT22;36160;53.370;-6.196;2022-10-16T05:06:05;8.10;47.80
35920;DHT22;36160;53.370;-6.196;2022-10-16T05:08:31;8.10;46.90
35920;DHT22;36160;53.370;-6.196;2022-10-16T05:10:57;8.10;46.00
35920;DHT22;36160;53.370;-6.196;2022-10-16T05:13:22;8.20;42.40
35920;DHT22;36160;53.370;-6.196;2022-10-16T05:15:49;8.20;38.40
35920;DHT22;36160;53.370;-6.196;2022-10-16T05:18:15;8.20;37.90
35920;DHT22;36160;53.370;-6.196;2022-10-16T05:20:41;8.30;35.10
35920;DHT22;36160;53.370;-6.196;2022-10-16T05:23:07;8.20;35.30
35920;DHT22;36160;53.370;-6.196;2022-10-16T05:25:33;8.30;34.10
35920;DHT22;36160;53.370;-6.196;2022-10-16T05:27:58;8.30;35.20
35920;DHT22;36160;53.370;-6.196;2022-10-16T05:30:24;8.20;38.60
35920;DHT22;36160;53.370;-6.196;2022-10-16T05:32:50;8.30;40.00
35920;DHT22;36160;53.370;-6.196;2022-10-16T05:35:17;8.30;40.00
35920;DHT22;36160;53.370;-6.196;2022-10-16T05:37:43;8.20;42.20
35920;DHT22;36160;53.370;-6.196;2022-10-16T05:40:09;8.20;43.10
35920;DHT22;36160;53.370;-6.196;2022-10-16T05:42:35;8.20;43.10
35920;DHT22;36160;53.370;-6.196;2022-10-16T05:45:01;8.30;44.20
35920;DHT22;36160;53.370;-6.196;2022-10-16T05:47:27;8.20;44.70
35920;DHT22;36160;53.370;-6.196;2022-10-16T05:49:52;8.30;46.70
35920;DHT22;36160;53.370;-6.196;2022-10-16T05:52:18;8.30;43.80
35920;DHT22;36160;53.370;-6.196;2022-10-16T05:54:44;8.30;44.20
35920;DHT22;36160;53.370;-6.196;2022-10-16T05:57:10;8.30;44.40
35920;DHT22;36160;53.370;-6.196;2022-10-16T05:59:36;8.30;45.10
35920;DHT22;36160;53.370;-6.196;2022-10-16T06:02:02;8.30;44.40
35920;DHT22;36160;53.370;-6.196;2022-10-16T06:04:27;8.20;45.70
35920;DHT22;36160;53.370;-6.196;2022-10-16T06:06:53;8.20;46.70
35920;DHT22;36160;53.370;-6.196;2022-10-16T06:09:18;8.20;46.30
35920;DHT22;36160;53.370;-6.196;2022-10-16T06:11:44;8.20;50.80
35920;DHT22;36160;53.370;-6.196;2022-10-16T06:14:10;8.20;50.30
35920;DHT22;36160;53.370;-6.196;2022-10-16T06:16:36;8.20;50.80
35920;DHT22;36160;53.370;-6.196;2022-10-16T06:19:03;8.20;52.20
35920;DHT22;36160;53.370;-6.196;2022-10-16T06:21:31;8.20;53.10
35920;DHT22;36160;53.370;-6.196;2022-10-16T06:23:58;8.20;54.90
35920;DHT22;36160;53.370;-6.196;2022-10-16T06:26:26;8.20;57.30
35920;DHT22;36160;53.370;-6.196;2022-10-16T06:28:54;8.20;56.30
35920;DHT22;36160;53.370;-6.196;2022-10-16T06:31:20;8.20;56.80
35920;DHT22;36160;53.370;-6.196;2022-10-16T06:33:50;8.20;58.90
35920;DHT22;36160;53.370;-6.196;2022-10-16T06:36:17;8.20;58.60
35920;DHT22;36160;53.370;-6.196;2022-10-16T06:38:44;8.10;60.00
35920;DHT22;36160;53.370;-6.196;2022-10-16T06:41:14;8.10;62.40
35920;DHT22;36160;53.370;-6.196;2022-10-16T06:43:41;8.00;66.80
35920;DHT22;36160;53.370;-6.196;2022-10-16T06:46:09;8.00;70.30
35920;DHT22;36160;53.370;-6.196;2022-10-16T06:48:35;8.00;70.80
35920;DHT22;36160;53.370;-6.196;2022-10-16T06:51:16;8.00;71.00
35920;DHT22;36160;53.370;-6.196;2022-10-16T06:53:47;8.00;74.80
35920;DHT22;36160;53.370;-6.196;2022-10-16T06:56:21;7.90;76.70
35920;DHT22;36160;53.370;-6.196;2022-10-16T06:58:47;7.90;75.00
35920;DHT22;36160;53.370;-6.196;2022-10-16T07:01:14;7.90;78.60
35920;DHT22;36160;53.370;-6.196;2022-10-16T07:03:41;7.80;83.30
35920;DHT22;36160;53.370;-6.196;2022-10-16T07:06:09;7.80;86.20
35920;DHT22;36160;53.370;-6.196;2022-10-16T07:08:36;7.70;90.90
35920;DHT22;36160;53.370;-6.196;2022-10-16T07:11:05;7.70;91.70
35920;DHT22;36160;53.370;-6.196;2022-10-16T07:13:33;7.70;92.80
35920;DHT22;36160;53.370;-6.196;2022-10-16T07:16:07;7.70;92.60
35920;DHT22;36160;53.370;-6.196;2022-10-16T07:18:34;7.80;92.00
35920;DHT22;36160;53.370;-6.196;2022-10-16T07:21:04;7.80;91.50
35920;DHT22;36160;53.370;-6.196;2022-10-16T07:23:30;7.70;92.70
35920;DHT22;36160;53.370;-6.196;2022-10-16T07:25:56;7.80;95.10
35920;DHT22;36160;53.370;-6.196;2022-10-16T07:28:21;7.90;95.00
35920;DHT22;36160;53.370;-6.196;2022-10-16T07:30:48;7.90;94.50
35920;DHT22;36160;53.370;-6.196;2022-10-16T07:33:13;7.90;94.20
35920;DHT22;36160;53.370;-6.196;2022-10-16T07:35:50;8.00;92.80
35920;DHT22;36160;53.370;-6.196;2022-10-16T07:38:16;8.10;92.10
35920;DHT22;36160;53.370;-6.196;2022-10-16T07:40:42;8.10;91.30
35920;DHT22;36160;53.370;-6.196;2022-10-16T07:43:08;8.20;90.60
35920;DHT22;36160;53.370;-6.196;2022-10-16T07:45:33;8.20;91.00
35920;DHT22;36160;53.370;-6.196;2022-10-16T07:47:59;8.30;87.50
35920;DHT22;36160;53.370;-6.196;2022-10-16T07:50:24;8.40;84.90
35920;DHT22;36160;53.370;-6.196;2022-10-16T07:52:50;8.40;80.00
35920;DHT22;36160;53.370;-6.196;2022-10-16T07:55:16;8.50;78.90
35920;DHT22;36160;53.370;-6.196;2022-10-16T07:57:41;8.50;75.20
35920;DHT22;36160;53.370;-6.196;2022-10-16T08:00:07;8.60;73.20
35920;DHT22;36160;53.370;-6.196;2022-10-16T08:02:41;8.70;71.90
35920;DHT22;36160;53.370;-6.196;2022-10-16T08:05:07;8.70;71.00
35920;DHT22;36160;53.370;-6.196;2022-10-16T08:07:33;8.80;71.20
35920;DHT22;36160;53.370;-6.196;2022-10-16T08:09:58;8.80;71.10
35920;DHT22;36160;53.370;-6.196;2022-10-16T08:12:25;8.90;74.50
35920;DHT22;36160;53.370;-6.196;2022-10-16T08:14:51;8.90;75.90
35920;DHT22;36160;53.370;-6.196;2022-10-16T08:17:17;8.90;77.90
35920;DHT22;36160;53.370;-6.196;2022-10-16T08:19:46;9.00;76.10
35920;DHT22;36160;53.370;-6.196;2022-10-16T08:22:13;9.10;78.90
35920;DHT22;36160;53.370;-6.196;2022-10-16T08:24:39;9.10;83.10
35920;DHT22;36160;53.370;-6.196;2022-10-16T08:27:05;9.10;83.10
35920;DHT22;36160;53.370;-6.196;2022-10-16T08:29:31;9.20;89.80
35920;DHT22;36160;53.370;-6.196;2022-10-16T08:31:56;9.20;93.20
35920;DHT22;36160;53.370;-6.196;2022-10-16T08:34:22;9.20;95.10
35920;DHT22;36160;53.370;-6.196;2022-10-16T08:36:47;9.30;96.20
35920;DHT22;36160;53.370;-6.196;2022-10-16T08:39:13;9.30;96.50
35920;DHT22;36160;53.370;-6.196;2022-10-16T08:47:17;9.50;78.70
35920;DHT22;36160;53.370;-6.196;2022-10-16T08:49:58;9.60;72.80
35920;DHT22;36160;53.370;-6.196;2022-10-16T08:52:29;9.70;66.90
35920;DHT22;36160;53.370;-6.196;2022-10-16T08:54:56;9.80;60.80
35920;DHT22;36160;53.370;-6.196;2022-10-16T08:57:24;9.90;51.60
35920;DHT22;36160;53.370;-6.196;2022-10-16T08:59:52;10.00;51.60
35920;DHT22;36160;53.370;-6.196;2022-10-16T09:02:32;10.10;54.10
35920;DHT22;36160;53.370;-6.196;2022-10-16T09:08:40;10.30;45.20
35920;DHT22;36160;53.370;-6.196;2022-10-16T09:16:33;10.50;33.40
35920;DHT22;36160;53.370;-6.196;2022-10-16T09:19:23;10.50;28.50
35920;DHT22;36160;53.370;-6.196;2022-10-16T09:21:50;10.60;25.80
35920;DHT22;36160;53.370;-6.196;2022-10-16T09:24:25;10.70;25.20
35920;DHT22;36160;53.370;-6.196;2022-10-16T09:26:51;10.80;24.10
35920;DHT22;36160;53.370;-6.196;2022-10-16T09:29:19;10.80;24.90
35920;DHT22;36160;53.370;-6.196;2022-10-16T09:31:50;10.80;26.50
35920;DHT22;36160;53.370;-6.196;2022-10-16T09:34:35;10.90;26.00
35920;DHT22;36160;53.370;-6.196;2022-10-16T09:37:08;10.90;25.00
35920;DHT22;36160;53.370;-6.196;2022-10-16T09:39:51;10.90;25.10
35920;DHT22;36160;53.370;-6.196;2022-10-16T09:42:35;10.90;27.60
35920;DHT22;36160;53.370;-6.196;2022-10-16T09:45:02;11.10;27.10
35920;DHT22;36160;53.370;-6.196;2022-10-16T09:47:30;11.10;24.30
35920;DHT22;36160;53.370;-6.196;2022-10-16T09:50:01;11.20;25.20
35920;DHT22;36160;53.370;-6.196;2022-10-16T09:52:30;11.20;23.80
35920;DHT22;36160;53.370;-6.196;2022-10-16T09:55:02;11.20;24.60
35920;DHT22;36160;53.370;-6.196;2022-10-16T09:57:28;11.30;24.00
35920;DHT22;36160;53.370;-6.196;2022-10-16T09:59:56;11.30;20.10
35920;DHT22;36160;53.370;-6.196;2022-10-16T10:02:36;11.30;14.70
35920;DHT22;36160;53.370;-6.196;2022-10-16T10:05:05;11.40;14.90
35920;DHT22;36160;53.370;-6.196;2022-10-16T10:07:44;11.40;11.60
35920;DHT22;36160;53.370;-6.196;2022-10-16T10:10:21;11.50;10.30
35920;DHT22;36160;53.370;-6.196;2022-10-16T10:12:47;11.50;10.00
35920;DHT22;36160;53.370;-6.196;2022-10-16T10:15:14;11.60;10.30
35920;DHT22;36160;53.370;-6.196;2022-10-16T10:17:56;11.60;9.70
35920;DHT22;36160;53.370;-6.196;2022-10-16T10:22:48;11.70;7.70
35920;DHT22;36160;53.370;-6.196;2022-10-16T10:36:05;11.70;1.00
35920;DHT22;36160;53.370;-6.196;2022-10-16T10:46:57;11.90;1.80
35920;DHT22;36160;53.370;-6.196;2022-10-16T10:55:09;12.00;1.00
35920;DHT22;36160;53.370;-6.196;2022-10-16T11:00:57;12.00;1.00
35920;DHT22;36160;53.370;-6.196;2022-10-16T11:06:08;12.10;1.00
35920;DHT22;36160;53.370;-6.196;2022-10-16T11:08:44;12.10;1.00
35920;DHT22;36160;53.370;-6.196;2022-10-16T11:11:15;12.10;1.00
35920;DHT22;36160;53.370;-6.196;2022-10-16T11:13:49;12.00;1.00
35920;DHT22;36160;53.370;-6.196;2022-10-16T11:16:22;12.00;1.00
35920;DHT22;36160;53.370;-6.196;2022-10-16T11:18:55;12.00;1.00
35920;DHT22;36160;53.370;-6.196;2022-10-16T11:21:24;12.00;1.00
35920;DHT22;36160;53.370;-6.196;2022-10-16T11:24:04;12.00;1.00
35920;DHT22;36160;53.370;-6.196;2022-10-16T11:26:35;11.90;1.00
35920;DHT22;36160;53.370;-6.196;2022-10-16T11:29:05;11.90;1.00
35920;DHT22;36160;53.370;-6.196;2022-10-16T11:31:44;12.00;1.00
35920;DHT22;36160;53.370;-6.196;2022-10-16T11:34:36;12.00;1.00
35920;DHT22;36160;53.370;-6.196;2022-10-16T11:37:05;12.10;1.00
35920;DHT22;36160;53.370;-6.196;2022-10-16T11:39:34;12.00;1.00
35920;DHT22;36160;53.370;-6.196;2022-10-16T11:42:22;12.00;1.00
35920;DHT22;36160;53.370;-6.196;2022-10-16T11:45:10;12.10;1.00
35920;DHT22;36160;53.370;-6.196;2022-10-16T11:47:56;12.10;1.00
35920;DHT22;36160;53.370;-6.196;2022-10-16T11:50:51;12.10;1.00
35920;DHT22;36160;53.370;-6.196;2022-10-16T11:55:47;12.10;1.00
35920;DHT22;36160;53.370;-6.196;2022-10-16T12:06:25;12.00;1.00
35920;DHT22;36160;53.370;-6.196;2022-10-16T12:08:54;12.10;1.00
35920;DHT22;36160;53.370;-6.196;2022-10-16T12:13:50;12.10;1.00
35920;DHT22;36160;53.370;-6.196;2022-10-16T12:18:43;12.10;1.00
35920;DHT22;36160;53.370;-6.196;2022-10-16T12:21:11;12.00;1.00
35920;DHT22;36160;53.370;-6.196;2022-10-16T12:23:54;12.00;1.00
35920;DHT22;36160;53.370;-6.196;2022-10-16T12:26:31;12.00;1.00
35920;DHT22;36160;53.370;-6.196;2022-10-16T12:31:44;12.10;1.00
35920;DHT22;36160;53.370;-6.196;2022-10-16T12:34:29;12.20;1.00
35920;DHT22;36160;53.370;-6.196;2022-10-16T12:37:13;12.20;1.00
35920;DHT22;36160;53.370;-6.196;2022-10-16T12:39:39;12.20;1.00
35920;DHT22;36160;53.370;-6.196;2022-10-16T12:47:51;12.20;1.00
35920;DHT22;36160;53.370;-6.196;2022-10-16T12:50:35;12.30;1.00
35920;DHT22;36160;53.370;-6.196;2022-10-16T12:53:03;12.30;1.00
35920;DHT22;36160;53.370;-6.196;2022-10-16T12:55:40;12.30;1.00
35920;DHT22;36160;53.370;-6.196;2022-10-16T13:00:54;12.20;1.00
35920;DHT22;36160;53.370;-6.196;2022-10-16T13:06:43;12.20;1.00
35920;DHT22;36160;53.370;-6.196;2022-10-16T13:09:25;12.10;1.00
35920;DHT22;36160;53.370;-6.196;2022-10-16T13:14:57;12.10;1.00
35920;DHT22;36160;53.370;-6.196;2022-10-16T13:25:53;12.10;1.00
35920;DHT22;36160;53.370;-6.196;2022-10-16T13:28:28;12.00;1.00
35920;DHT22;36160;53.370;-6.196;2022-10-16T13:30:58;12.10;1.00
35920;DHT22;36160;53.370;-6.196;2022-10-16T13:33:48;12.10;1.00
35920;DHT22;36160;53.370;-6.196;2022-10-16T13:36:24;12.10;1.00
35920;DHT22;36160;53.370;-6.196;2022-10-16T13:39:06;12.10;1.00
35920;DHT22;36160;53.370;-6.196;2022-10-16T13:41:32;12.00;1.00
35920;DHT22;36160;53.370;-6.196;2022-10-16T13:43:57;12.00;1.00
35920;DHT22;36160;53.370;-6.196;2022-10-16T13:46:24;12.00;1.00
35920;DHT22;36160;53.370;-6.196;2022-10-16T13:49:10;11.90;4.80
35920;DHT22;36160;53.370;-6.196;2022-10-16T13:51:36;11.90;13.20
35920;DHT22;36160;53.370;-6.196;2022-10-16T13:54:02;11.90;19.00
35920;DHT22;36160;53.370;-6.196;2022-10-16T13:56:30;11.90;21.20
35920;DHT22;36160;53.370;-6.196;2022-10-16T13:59:01;11.90;24.50
35920;DHT22;36160;53.370;-6.196;2022-10-16T14:01:32;12.00;29.00
35920;DHT22;36160;53.370;-6.196;2022-10-16T14:04:10;12.00;35.70
35920;DHT22;36160;53.370;-6.196;2022-10-16T14:06:41;12.00;47.90
35920;DHT22;36160;53.370;-6.196;2022-10-16T14:09:11;12.00;53.90
35920;DHT22;36160;53.370;-6.196;2022-10-16T14:11:48;12.00;58.00
35920;DHT22;36160;53.370;-6.196;2022-10-16T14:14:15;12.00;53.00
35920;DHT22;36160;53.370;-6.196;2022-10-16T14:16:42;12.00;51.30
35920;DHT22;36160;53.370;-6.196;2022-10-16T14:19:24;12.00;32.70
35920;DHT22;36160;53.370;-6.196;2022-10-16T14:21:50;12.00;27.20
35920;DHT22;36160;53.370;-6.196;2022-10-16T14:24:33;12.10;24.70
35920;DHT22;36160;53.370;-6.196;2022-10-16T14:27:00;12.10;24.80
35920;DHT22;36160;53.370;-6.196;2022-10-16T14:29:28;12.00;13.20
35920;DHT22;36160;53.370;-6.196;2022-10-16T14:32:20;12.10;9.00
35920;DHT22;36160;53.370;-6.196;2022-10-16T14:34:53;12.10;13.80
35920;DHT22;36160;53.370;-6.196;2022-10-16T14:37:25;12.20;8.70
35920;DHT22;36160;53.370;-6.196;2022-10-16T14:39:52;12.10;10.40
35920;DHT22;36160;53.370;-6.196;2022-10-16T14:42:20;12.10;15.90
35920;DHT22;36160;53.370;-6.196;2022-10-16T14:44:46;12.10;20.60
35920;DHT22;36160;53.370;-6.196;2022-10-16T14:47:17;12.20;23.30
35920;DHT22;36160;53.370;-6.196;2022-10-16T14:49:47;12.20;22.30
35920;DHT22;36160;53.370;-6.196;2022-10-16T14:52:13;12.20;27.60
35920;DHT22;36160;53.370;-6.196;2022-10-16T14:54:39;12.30;30.00
35920;DHT22;36160;53.370;-6.196;2022-10-16T14:57:06;12.30;28.70
35920;DHT22;36160;53.370;-6.196;2022-10-16T14:59:41;12.30;24.20
35920;DHT22;36160;53.370;-6.196;2022-10-16T15:02:30;12.30;24.90
35920;DHT22;36160;53.370;-6.196;2022-10-16T15:04:56;12.30;25.00
35920;DHT22;36160;53.370;-6.196;2022-10-16T15:07:23;12.30;27.50
35920;DHT22;36160;53.370;-6.196;2022-10-16T15:09:48;12.30;25.00
35920;DHT22;36160;53.370;-6.196;2022-10-16T15:12:14;12.30;26.10
35920;DHT22;36160;53.370;-6.196;2022-10-16T15:14:40;12.40;27.60
35920;DHT22;36160;53.370;-6.196;2022-10-16T15:17:11;12.30;33.60
35920;DHT22;36160;53.370;-6.196;2022-10-16T15:19:37;12.40;36.40
35920;DHT22;36160;53.370;-6.196;2022-10-16T15:22:03;12.40;29.80
35920;DHT22;36160;53.370;-6.196;2022-10-16T15:24:28;12.30;26.90
35920;DHT22;36160;53.370;-6.196;2022-10-16T15:26:54;12.40;32.20
35920;DHT22;36160;53.370;-6.196;2022-10-16T15:29:20;12.30;30.30
35920;DHT22;36160;53.370;-6.196;2022-10-16T15:31:45;12.40;26.60
35920;DHT22;36160;53.370;-6.196;2022-10-16T15:34:13;12.40;23.80
35920;DHT22;36160;53.370;-6.196;2022-10-16T15:36:40;12.40;20.90
35920;DHT22;36160;53.370;-6.196;2022-10-16T15:39:15;12.40;20.00
35920;DHT22;36160;53.370;-6.196;2022-10-16T15:41:42;12.40;23.90
35920;DHT22;36160;53.370;-6.196;2022-10-16T15:44:08;12.40;16.40
35920;DHT22;36160;53.370;-6.196;2022-10-16T15:46:34;12.40;16.20
35920;DHT22;36160;53.370;-6.196;2022-10-16T15:49:00;12.40;21.60
35920;DHT22;36160;53.370;-6.196;2022-10-16T15:51:27;12.50;24.80
35920;DHT22;36160;53.370;-6.196;2022-10-16T15:53:59;12.40;20.90
35920;DHT22;36160;53.370;-6.196;2022-10-16T15:56:27;12.40;22.10
35920;DHT22;36160;53.370;-6.196;2022-10-16T15:58:54;12.40;19.10
35920;DHT22;36160;53.370;-6.196;2022-10-16T16:01:20;12.30;25.10
35920;DHT22;36160;53.370;-6.196;2022-10-16T16:03:45;12.30;40.70
35920;DHT22;36160;53.370;-6.196;2022-10-16T16:06:12;12.30;54.70
35920;DHT22;36160;53.370;-6.196;2022-10-16T16:08:39;12.30;63.80
35920;DHT22;36160;53.370;-6.196;2022-10-16T16:11:10;12.20;66.10
35920;DHT22;36160;53.370;-6.196;2022-10-16T16:13:36;12.20;70.50
35920;DHT22;36160;53.370;-6.196;2022-10-16T16:16:14;12.10;87.90
35920;DHT22;36160;53.370;-6.196;2022-10-16T16:18:41;12.10;98.20
35920;DHT22;36160;53.370;-6.196;2022-10-16T16:21:08;12.00;99.90
35920;DHT22;36160;53.370;-6.196;2022-10-16T16:23:35;11.90;99.90
35920;DHT22;36160;53.370;-6.196;2022-10-16T16:28:34;11.80;99.90
35920;DHT22;36160;53.370;-6.196;2022-10-16T16:30:59;11.80;99.90
35920;DHT22;36160;53.370;-6.196;2022-10-16T16:33:25;11.80;99.90
35920;DHT22;36160;53.370;-6.196;2022-10-16T16:35:55;11.70;99.90
35920;DHT22;36160;53.370;-6.196;2022-10-16T16:38:21;11.80;99.90
35920;DHT22;36160;53.370;-6.196;2022-10-16T16:40:46;11.90;99.90
35920;DHT22;36160;53.370;-6.196;2022-10-16T16:43:12;11.90;99.90
35920;DHT22;36160;53.370;-6.196;2022-10-16T16:45:37;12.00;99.90
35920;DHT22;36160;53.370;-6.196;2022-10-16T16:48:03;11.90;99.90
35920;DHT22;36160;53.370;-6.196;2022-10-16T16:50:35;12.00;99.90
35920;DHT22;36160;53.370;-6.196;2022-10-16T16:53:02;12.00;99.90
35920;DHT22;36160;53.370;-6.196;2022-10-16T16:55:28;12.10;99.90
35920;DHT22;36160;53.370;-6.196;2022-10-16T16:57:54;12.10;99.90
35920;DHT22;36160;53.370;-6.196;2022-10-16T17:00:20;12.10;99.90
35920;DHT22;36160;53.370;-6.196;2022-10-16T17:02:49;12.10;99.90
35920;DHT22;36160;53.370;-6.196;2022-10-16T17:05:15;12.20;99.90
35920;DHT22;36160;53.370;-6.196;2022-10-16T17:07:41;12.20;99.90
35920;DHT22;36160;53.370;-6.196;2022-10-16T17:10:07;12.30;99.90
35920;DHT22;36160;53.370;-6.196;2022-10-16T17:12:33;12.30;99.90
35920;DHT22;36160;53.370;-6.196;2022-10-16T17:14:59;12.30;99.90
35920;DHT22;36160;53.370;-6.196;2022-10-16T17:17:25;12.20;99.90
35920;DHT22;36160;53.370;-6.196;2022-10-16T17:19:51;12.20;99.90
35920;DHT22;36160;53.370;-6.196;2022-10-16T17:22:18;12.20;99.90
35920;DHT22;36160;53.370;-6.196;2022-10-16T17:24:43;12.10;99.90
35920;DHT22;36160;53.370;-6.196;2022-10-16T17:27:09;12.30;99.90